createdAt,value
2023-03-11T00:01:43.662Z,1.87
2023-03-11T00:04:11.778Z,2.50
2023-03-11T00:06:39.495Z,1.77
2023-03-11T00:09:08.532Z,1.90
2023-03-11T00:11:36.193Z,1.77
2023-03-11T00:14:03.864Z,1.93
2023-03-11T00:16:31.551Z,1.90
2023-03-11T00:19:00.251Z,1.70
2023-03-11T00:21:27.973Z,1.87
2023-03-11T00:23:55.657Z,1.80
2023-03-11T00:26:24.692Z,1.63
2023-03-11T00:28:52.403Z,1.67
2023-03-11T00:31:20.107Z,1.77
2023-03-11T00:33:47.867Z,1.67
2023-03-11T00:36:21.463Z,1.87
2023-03-11T00:38:49.215Z,2.00
2023-03-11T00:41:16.918Z,1.80
2023-03-11T00:43:45.963Z,1.80
2023-03-11T00:46:13.659Z,1.67
2023-03-11T00:48:41.330Z,1.73
2023-03-11T00:51:09.241Z,1.90
2023-03-11T00:53:36.959Z,1.40
2023-03-11T00:56:08.516Z,2.10
2023-03-11T00:58:36.228Z,2.17
2023-03-11T01:01:09.726Z,2.10
2023-03-11T01:03:37.511Z,2.00
2023-03-11T01:06:05.912Z,1.90
2023-03-11T01:08:33.599Z,1.57
2023-03-11T01:11:01.332Z,1.73
2023-03-11T01:13:29.423Z,1.60
2023-03-11T01:15:57.116Z,2.30
2023-03-11T01:18:26.177Z,1.53
2023-03-11T01:20:53.897Z,1.80
2023-03-11T01:23:21.606Z,1.83
2023-03-11T01:25:49.296Z,2.23
2023-03-11T01:28:16.967Z,2.00
2023-03-11T01:30:44.768Z,1.70
2023-03-11T01:33:15.517Z,1.63
2023-03-11T01:35:44.593Z,1.53
2023-03-11T01:38:12.356Z,1.90
2023-03-11T01:40:40.910Z,1.67
2023-03-11T01:43:29.056Z,1.60
2023-03-11T01:46:13.342Z,1.67
2023-03-11T01:48:42.231Z,1.70
2023-03-11T01:51:09.915Z,1.90
2023-03-11T01:53:37.622Z,1.70
2023-03-11T01:56:05.685Z,1.97
2023-03-11T01:58:35.185Z,1.80
2023-03-11T02:01:03.140Z,1.60
2023-03-11T02:03:33.098Z,1.60
2023-03-11T02:06:02.250Z,1.77
2023-03-11T02:08:33.975Z,1.67
2023-03-11T02:11:01.945Z,2.03
2023-03-11T02:13:29.783Z,1.90
2023-03-11T02:15:57.509Z,1.87
2023-03-11T02:18:25.227Z,1.70
2023-03-11T02:20:57.989Z,1.90
2023-03-11T02:23:26.991Z,1.53
2023-03-11T02:25:57.187Z,1.70
2023-03-11T02:28:26.271Z,1.90
2023-03-11T02:30:54.012Z,1.73
2023-03-11T02:33:21.687Z,1.90
2023-03-11T02:35:49.427Z,1.70
2023-03-11T02:38:17.120Z,2.00
2023-03-11T02:40:51.652Z,2.00
2023-03-11T02:43:20.833Z,1.70
2023-03-11T02:45:49.886Z,1.60
2023-03-11T02:48:17.585Z,1.93
2023-03-11T02:50:45.421Z,1.70
2023-03-11T02:53:13.097Z,1.80
2023-03-11T02:55:40.880Z,1.77
2023-03-11T02:58:08.639Z,1.70
2023-03-11T03:00:36.400Z,1.60
2023-03-11T03:03:05.512Z,1.50
2023-03-11T03:05:33.571Z,1.87
2023-03-11T03:08:02.696Z,1.50
2023-03-11T03:10:30.579Z,2.10
2023-03-11T03:12:58.250Z,2.00
2023-03-11T03:15:26.350Z,1.80
2023-03-11T03:17:54.020Z,1.70
2023-03-11T03:20:23.568Z,1.60
2023-03-11T03:22:51.846Z,1.60
2023-03-11T03:25:19.560Z,1.73
2023-03-11T03:27:47.274Z,1.80
2023-03-11T03:30:15.291Z,1.90
2023-03-11T03:32:42.999Z,1.90
2023-03-11T03:35:11.029Z,1.50
2023-03-11T03:37:40.056Z,1.60
2023-03-11T03:40:09.762Z,2.17
2023-03-11T03:42:37.566Z,1.87
2023-03-11T03:45:06.729Z,1.70
2023-03-11T03:47:34.388Z,1.83
2023-03-11T03:50:03.223Z,1.60
2023-03-11T03:52:30.951Z,1.70
2023-03-11T03:54:59.967Z,1.70
2023-03-11T03:57:27.638Z,1.50
2023-03-11T03:59:55.326Z,1.90
2023-03-11T04:02:23.031Z,1.63
2023-03-11T04:04:50.731Z,1.67
2023-03-11T04:07:18.404Z,1.80
2023-03-11T04:09:46.071Z,1.50
2023-03-11T04:12:17.397Z,1.90
2023-03-11T04:14:45.176Z,1.50
2023-03-11T04:17:13.134Z,1.50
2023-03-11T04:19:40.881Z,1.47
2023-03-11T04:22:08.563Z,1.40
2023-03-11T04:24:36.230Z,1.60
2023-03-11T04:27:03.977Z,1.80
2023-03-11T04:29:33.000Z,1.73
2023-03-11T04:32:00.668Z,1.50
2023-03-11T04:34:28.344Z,1.50
2023-03-11T04:36:56.030Z,1.43
2023-03-11T04:39:23.685Z,1.60
2023-03-11T04:41:51.350Z,1.50
2023-03-11T04:44:19.017Z,1.43
2023-03-11T04:46:48.050Z,1.60
2023-03-11T04:49:15.725Z,1.40
2023-03-11T04:51:43.421Z,1.60
2023-03-11T04:54:11.078Z,1.60
2023-03-11T04:56:38.803Z,1.57
2023-03-11T04:59:06.452Z,1.50
2023-03-11T05:01:34.168Z,1.70
2023-03-11T05:04:03.482Z,1.40
2023-03-11T05:06:31.392Z,1.20
2023-03-11T05:08:59.093Z,1.37
2023-03-11T05:11:26.778Z,1.73
2023-03-11T05:13:54.458Z,1.60
2023-03-11T05:16:22.177Z,1.30
2023-03-11T05:18:49.874Z,1.67
2023-03-11T05:21:18.906Z,1.60
2023-03-11T05:23:46.643Z,1.57
2023-03-11T05:26:14.358Z,1.63
2023-03-11T05:28:42.029Z,1.50
2023-03-11T05:31:10.347Z,1.43
2023-03-11T05:33:38.044Z,1.57
2023-03-11T05:36:07.389Z,1.73
2023-03-11T05:38:36.446Z,1.37
2023-03-11T05:41:04.228Z,1.83
2023-03-11T05:43:31.904Z,1.30
2023-03-11T05:45:59.574Z,1.57
2023-03-11T05:48:27.289Z,1.30
2023-03-11T05:50:54.963Z,1.60
2023-03-11T05:53:22.640Z,1.30
2023-03-11T05:55:58.350Z,1.33
2023-03-11T05:58:26.081Z,1.40
2023-03-11T06:00:53.766Z,1.40
2023-03-11T06:03:21.611Z,1.50
2023-03-11T06:05:50.148Z,1.40
2023-03-11T06:08:18.050Z,1.30
2023-03-11T06:10:47.870Z,1.20
2023-03-11T06:13:17.923Z,1.30
2023-03-11T06:15:45.842Z,1.37
2023-03-11T06:18:13.527Z,1.53
2023-03-11T06:20:41.240Z,1.37
2023-03-11T06:23:08.899Z,1.40
2023-03-11T06:25:36.586Z,1.40
2023-03-11T06:28:04.264Z,1.50
2023-03-11T06:30:33.380Z,1.40
2023-03-11T06:33:01.054Z,1.50
2023-03-11T06:35:28.731Z,1.20
2023-03-11T06:37:56.431Z,1.30
2023-03-11T06:40:24.331Z,1.50
2023-03-11T06:42:52.348Z,1.40
2023-03-11T06:45:20.816Z,1.40
2023-03-11T06:47:49.896Z,1.30
2023-03-11T06:50:17.837Z,1.30
2023-03-11T06:52:45.625Z,1.50
2023-03-11T06:55:13.356Z,1.40
2023-03-11T06:57:41.033Z,1.30
2023-03-11T07:00:12.203Z,1.67
2023-03-11T07:02:39.905Z,1.33
2023-03-11T07:05:09.839Z,1.43
2023-03-11T07:07:37.507Z,1.40
2023-03-11T07:10:06.444Z,1.30
2023-03-11T07:12:34.141Z,1.27
2023-03-11T07:15:01.895Z,1.37
2023-03-11T07:17:29.573Z,1.47
2023-03-11T07:19:57.244Z,1.30
2023-03-11T07:22:26.311Z,1.17
2023-03-11T07:24:54.152Z,1.30
2023-03-11T07:27:22.382Z,1.17
2023-03-11T07:29:50.079Z,1.47
2023-03-11T07:32:17.983Z,1.43
2023-03-11T07:34:45.730Z,1.43
2023-03-11T07:37:14.202Z,1.10
2023-03-11T07:39:44.469Z,1.40
2023-03-11T07:42:12.143Z,1.33
2023-03-11T07:44:39.834Z,1.37
2023-03-11T07:47:07.690Z,1.30
2023-03-11T07:49:35.387Z,1.40
2023-03-11T07:52:03.059Z,1.20
2023-03-11T07:54:30.740Z,1.40
2023-03-11T07:57:00.022Z,1.40
2023-03-11T07:59:27.739Z,1.30
2023-03-11T08:01:55.395Z,1.13
2023-03-11T08:04:23.442Z,1.23
2023-03-11T08:06:51.127Z,1.10
2023-03-11T08:09:18.961Z,1.37
2023-03-11T08:11:48.753Z,1.50
2023-03-11T08:14:18.739Z,1.17
2023-03-11T08:16:46.414Z,1.33
2023-03-11T08:19:14.128Z,1.27
2023-03-11T08:21:41.834Z,1.33
2023-03-11T08:24:11.548Z,1.13
2023-03-11T08:26:39.284Z,1.20
2023-03-11T08:29:07.005Z,1.57
2023-03-11T08:31:36.189Z,1.20
2023-03-11T08:34:05.704Z,1.23
2023-03-11T08:36:33.684Z,1.20
2023-03-11T08:39:01.490Z,1.30
2023-03-11T08:41:29.248Z,1.27
2023-03-11T08:43:56.954Z,1.30
2023-03-11T08:46:25.825Z,1.40
2023-03-11T08:48:55.178Z,1.20
2023-03-11T08:51:23.240Z,1.30
2023-03-11T08:53:51.056Z,1.30
2023-03-11T08:56:18.850Z,1.50
2023-03-11T08:58:46.576Z,1.30
2023-03-11T09:01:14.293Z,1.43
2023-03-11T09:03:41.952Z,1.20
2023-03-11T09:06:13.585Z,1.30
2023-03-11T09:08:41.247Z,1.40
2023-03-11T09:11:08.991Z,1.37
2023-03-11T09:13:37.064Z,1.33
2023-03-11T09:16:05.965Z,1.20
2023-03-11T09:18:33.689Z,1.27
2023-03-11T09:21:01.494Z,1.40
2023-03-11T09:23:30.596Z,1.20
2023-03-11T09:25:58.302Z,1.20
2023-03-11T09:28:26.010Z,1.00
2023-03-11T09:30:53.712Z,1.20
2023-03-11T09:33:21.452Z,1.10
2023-03-11T09:35:49.188Z,1.20
2023-03-11T09:38:16.877Z,1.27
2023-03-11T09:40:52.645Z,1.17
2023-03-11T09:43:27.069Z,1.13
2023-03-11T09:45:56.545Z,1.10
2023-03-11T09:48:25.814Z,1.33
2023-03-11T09:50:54.911Z,1.13
2023-03-11T09:53:27.340Z,1.30
2023-03-11T09:55:56.686Z,1.10
2023-03-11T09:58:30.970Z,1.30
2023-03-11T10:00:58.639Z,1.23
2023-03-11T10:03:31.791Z,1.30
2023-03-11T10:06:06.161Z,0.90
2023-03-11T10:08:35.322Z,1.20
2023-03-11T10:11:09.162Z,1.33
2023-03-11T10:13:38.095Z,1.30
2023-03-11T10:16:10.594Z,1.27
2023-03-11T10:18:44.500Z,1.10
2023-03-11T10:21:14.734Z,1.20
2023-03-11T10:23:51.453Z,1.53
2023-03-11T10:26:21.411Z,1.17
2023-03-11T10:28:51.118Z,1.37
2023-03-11T10:31:22.889Z,1.13
2023-03-11T10:33:51.991Z,1.13
2023-03-11T10:36:24.044Z,1.30
2023-03-11T10:38:52.291Z,1.30
2023-03-11T10:41:22.914Z,1.20
2023-03-11T10:43:53.158Z,1.40
2023-03-11T10:46:22.017Z,1.10
2023-03-11T10:48:49.693Z,1.30
2023-03-11T10:51:22.411Z,1.30
2023-03-11T10:53:51.399Z,1.10
2023-03-11T10:56:30.560Z,1.40
2023-03-11T10:58:58.571Z,1.13
2023-03-11T11:01:26.357Z,0.90
2023-03-11T11:03:55.497Z,1.20
2023-03-11T11:06:26.437Z,1.00
2023-03-11T11:09:16.901Z,1.40
2023-03-11T11:12:00.921Z,1.20
2023-03-11T11:14:43.262Z,1.10
2023-03-11T11:17:18.238Z,1.30
2023-03-11T11:19:46.004Z,1.30
2023-03-11T11:22:15.107Z,1.13
2023-03-11T11:24:45.054Z,1.20
2023-03-11T11:27:18.497Z,1.30
2023-03-11T11:29:46.239Z,1.20
2023-03-11T11:32:23.046Z,1.30
2023-03-11T11:34:59.505Z,1.20
2023-03-11T11:37:31.714Z,1.57
2023-03-11T11:40:11.265Z,1.17
2023-03-11T11:42:41.119Z,1.20
2023-03-11T11:45:14.548Z,1.30
2023-03-11T11:47:45.150Z,1.23
2023-03-11T11:50:16.030Z,1.20
2023-03-11T11:52:45.291Z,1.23
2023-03-11T11:55:19.991Z,1.10
2023-03-11T11:57:49.101Z,0.90
2023-03-11T12:00:20.700Z,1.10
2023-03-11T12:03:00.274Z,1.30
2023-03-11T12:05:29.722Z,1.30
2023-03-11T12:08:02.824Z,1.13
2023-03-11T12:10:30.923Z,1.03
2023-03-11T12:13:34.012Z,1.13
2023-03-11T12:16:02.951Z,1.10
2023-03-11T12:18:35.141Z,1.40
2023-03-11T12:21:05.009Z,1.23
2023-03-11T12:23:38.764Z,1.10
2023-03-11T12:26:13.852Z,1.17
2023-03-11T12:28:46.038Z,1.00
2023-03-11T12:31:14.231Z,1.10
2023-03-11T12:33:42.258Z,1.27
2023-03-11T12:36:23.543Z,1.10
2023-03-11T12:38:51.359Z,1.20
2023-03-11T12:41:33.624Z,1.40
2023-03-11T12:44:04.445Z,1.50
2023-03-11T12:47:05.594Z,1.10
2023-03-11T12:49:33.621Z,1.30
2023-03-11T12:52:06.730Z,1.20
2023-03-11T12:54:35.082Z,1.13
2023-03-11T12:57:03.027Z,1.20
2023-03-11T12:59:44.320Z,1.10
2023-03-11T13:02:24.878Z,1.10
2023-03-11T13:04:56.964Z,1.17
2023-03-11T13:07:43.328Z,1.00
2023-03-11T13:10:35.820Z,1.10
2023-03-11T13:13:03.921Z,1.10
2023-03-11T13:15:41.774Z,0.90
2023-03-11T13:18:19.728Z,1.00
2023-03-11T13:20:50.179Z,1.10
2023-03-11T13:23:33.367Z,1.00
2023-03-11T13:26:23.796Z,0.90
2023-03-11T13:29:17.902Z,0.93
2023-03-11T13:31:53.857Z,0.90
2023-03-11T13:34:25.163Z,1.50
2023-03-11T13:37:00.202Z,1.53
2023-03-11T13:39:32.740Z,1.03
2023-03-11T13:42:00.434Z,1.00
2023-03-11T13:44:29.921Z,1.33
2023-03-11T13:47:01.732Z,1.20
2023-03-11T13:49:33.862Z,1.37
2023-03-11T13:52:01.584Z,1.00
2023-03-11T13:54:39.325Z,1.00
2023-03-11T13:57:07.115Z,1.00
2023-03-11T13:59:35.820Z,1.30
2023-03-11T14:02:12.973Z,1.20
2023-03-11T14:04:40.643Z,0.90
2023-03-11T14:07:13.641Z,1.00
2023-03-11T14:09:41.396Z,1.07
2023-03-11T14:12:09.313Z,1.10
2023-03-11T14:14:44.235Z,0.97
2023-03-11T14:17:15.131Z,0.97
2023-03-11T14:19:42.896Z,1.20
2023-03-11T14:22:10.684Z,1.10
2023-03-11T14:24:38.555Z,1.10
2023-03-11T14:27:09.444Z,1.77
2023-03-11T14:29:37.783Z,1.17
2023-03-11T14:32:18.913Z,1.00
2023-03-11T14:34:46.682Z,1.13
2023-03-11T14:37:27.473Z,1.10
2023-03-11T14:39:55.149Z,1.20
2023-03-11T14:42:26.052Z,1.20
2023-03-11T14:44:57.500Z,1.17
2023-03-11T14:47:31.926Z,1.13
2023-03-11T14:49:59.613Z,0.90
2023-03-11T14:52:33.375Z,1.10
2023-03-11T14:55:01.086Z,1.43
2023-03-11T14:57:32.300Z,1.20
2023-03-11T14:59:59.977Z,1.30
2023-03-11T15:02:34.679Z,1.10
2023-03-11T15:05:03.436Z,1.37
2023-03-11T15:07:32.756Z,1.20
2023-03-11T15:10:01.120Z,0.90
2023-03-11T15:12:32.767Z,1.20
2023-03-11T15:15:00.447Z,1.13
2023-03-11T15:17:38.428Z,1.10
2023-03-11T15:20:24.415Z,1.07
2023-03-11T15:22:58.136Z,1.00
2023-03-11T15:25:25.856Z,1.10
2023-03-11T15:27:53.536Z,1.03
2023-03-11T15:30:22.457Z,0.90
2023-03-11T15:32:50.402Z,0.90
2023-03-11T15:35:19.285Z,1.00
2023-03-11T15:37:48.669Z,1.00
2023-03-11T15:40:23.428Z,1.17
2023-03-11T15:43:13.736Z,1.00
2023-03-11T15:45:41.438Z,1.20
2023-03-11T15:48:10.025Z,1.00
2023-03-11T15:50:52.078Z,1.00
2023-03-11T15:53:21.608Z,1.10
2023-03-11T15:55:49.303Z,1.20
2023-03-11T15:58:17.906Z,1.17
2023-03-11T16:00:47.937Z,1.10
2023-03-11T16:03:15.772Z,1.03
2023-03-11T16:05:43.507Z,1.30
2023-03-11T16:08:11.241Z,1.20
2023-03-11T16:10:40.392Z,1.00
2023-03-11T16:13:08.080Z,1.10
2023-03-11T16:15:37.730Z,1.10
2023-03-11T16:18:07.408Z,1.00
2023-03-11T16:20:37.539Z,1.10
2023-03-11T16:23:05.288Z,1.27
2023-03-11T16:25:34.387Z,1.20
2023-03-11T16:28:03.456Z,1.00
2023-03-11T16:30:32.376Z,1.00
2023-03-11T16:33:01.601Z,1.00
2023-03-11T16:35:31.106Z,1.23
2023-03-11T16:37:58.913Z,1.20
2023-03-11T16:40:27.598Z,1.10
2023-03-11T16:42:56.264Z,1.20
2023-03-11T16:45:25.615Z,1.10
2023-03-11T16:47:53.280Z,1.20
2023-03-11T16:50:24.165Z,1.10
2023-03-11T16:52:51.930Z,1.13
2023-03-11T16:55:19.746Z,1.10
2023-03-11T16:57:47.400Z,1.00
2023-03-11T17:00:15.612Z,1.13
2023-03-11T17:02:44.674Z,1.20
2023-03-11T17:05:12.449Z,1.20
2023-03-11T17:07:40.188Z,0.97
2023-03-11T17:10:08.269Z,1.20
2023-03-11T17:12:36.021Z,1.10
2023-03-11T17:15:04.083Z,1.00
2023-03-11T17:17:31.762Z,1.20
2023-03-11T17:20:00.792Z,1.30
2023-03-11T17:22:28.474Z,1.20
2023-03-11T17:24:56.287Z,0.93
2023-03-11T17:27:24.243Z,1.17
2023-03-11T17:29:51.930Z,1.13
2023-03-11T17:32:21.422Z,1.07
2023-03-11T17:34:49.276Z,1.10
2023-03-11T17:37:18.644Z,1.10
2023-03-11T17:39:46.309Z,1.23
2023-03-11T17:42:14.003Z,1.10
2023-03-11T17:44:51.385Z,1.00
2023-03-11T17:47:20.554Z,1.03
2023-03-11T17:49:48.489Z,1.07
2023-03-11T17:52:16.199Z,1.00
2023-03-11T17:54:45.247Z,1.03
2023-03-11T17:57:12.950Z,1.00
2023-03-11T17:59:40.663Z,1.30
2023-03-11T18:02:08.717Z,1.00
2023-03-11T18:04:38.777Z,1.23
2023-03-11T18:07:06.484Z,1.20
2023-03-11T18:09:34.169Z,1.00
2023-03-11T18:12:03.934Z,1.00
2023-03-11T18:14:31.604Z,1.00
2023-03-11T18:16:59.287Z,0.90
2023-03-11T18:19:27.048Z,1.20
2023-03-11T18:21:54.716Z,1.10
2023-03-11T18:24:22.408Z,1.03
2023-03-11T18:26:50.099Z,1.40
2023-03-11T18:29:19.155Z,1.10
2023-03-11T18:31:46.867Z,0.90
2023-03-11T18:34:14.878Z,1.10
2023-03-11T18:36:42.749Z,1.47
2023-03-11T18:39:12.508Z,1.50
2023-03-11T18:41:40.276Z,1.00
2023-03-11T18:44:08.046Z,1.20
2023-03-11T18:46:37.346Z,1.20
2023-03-11T18:49:05.498Z,1.30
2023-03-11T18:51:33.333Z,1.10
2023-03-11T18:54:01.246Z,1.00
2023-03-11T18:56:30.878Z,1.13
2023-03-11T18:58:58.702Z,1.00
2023-03-11T19:01:27.205Z,1.27
2023-03-11T19:03:57.220Z,1.30
2023-03-11T19:06:25.156Z,1.20
2023-03-11T19:08:52.888Z,1.10
2023-03-11T19:11:21.715Z,1.20
2023-03-11T19:13:49.419Z,1.10
2023-03-11T19:16:18.162Z,1.20
2023-03-11T19:18:45.935Z,1.03
2023-03-11T19:21:15.724Z,0.90
2023-03-11T19:23:43.424Z,1.10
2023-03-11T19:26:11.097Z,1.00
2023-03-11T19:28:38.805Z,1.10
2023-03-11T19:31:06.625Z,0.97
2023-03-11T19:33:34.347Z,1.00
2023-03-11T19:36:02.905Z,1.00
2023-03-11T19:38:32.003Z,1.10
2023-03-11T19:41:03.864Z,1.30
2023-03-11T19:43:31.680Z,1.10
2023-03-11T19:45:59.982Z,1.00
2023-03-11T19:48:27.708Z,0.97
2023-03-11T19:50:55.443Z,1.23
2023-03-11T19:53:23.372Z,1.40
2023-03-11T19:55:53.120Z,1.10
2023-03-11T19:58:20.864Z,1.10
2023-03-11T20:00:48.578Z,1.00
2023-03-11T20:03:16.398Z,1.20
2023-03-11T20:05:45.029Z,1.00
2023-03-11T20:08:13.977Z,0.90
2023-03-11T20:10:42.583Z,0.90
2023-03-11T20:13:11.616Z,1.10
2023-03-11T20:15:39.368Z,1.00
2023-03-11T20:18:07.255Z,1.10
2023-03-11T20:20:35.264Z,1.13
2023-03-11T20:23:02.951Z,1.10
2023-03-11T20:25:32.264Z,0.80
2023-03-11T20:28:00.174Z,1.17
2023-03-11T20:30:29.353Z,1.10
2023-03-11T20:32:57.327Z,1.00
2023-03-11T20:35:25.124Z,1.10
2023-03-11T20:37:52.956Z,1.10
2023-03-11T20:40:20.940Z,1.00
2023-03-11T20:42:48.711Z,1.10
2023-03-11T20:45:17.549Z,1.30
2023-03-11T20:47:46.828Z,0.90
2023-03-11T20:50:14.555Z,1.10
2023-03-11T20:52:42.285Z,1.00
2023-03-11T20:55:11.190Z,1.10
2023-03-11T20:57:39.153Z,1.00
2023-03-11T21:00:11.343Z,1.00
2023-03-11T21:02:39.664Z,1.00
2023-03-11T21:05:09.825Z,0.90
2023-03-11T21:07:37.593Z,1.00
2023-03-11T21:10:06.651Z,1.03
2023-03-11T21:12:34.366Z,1.40
2023-03-11T21:15:02.174Z,1.10
2023-03-11T21:17:29.985Z,1.00
2023-03-11T21:19:58.141Z,0.93
2023-03-11T21:22:27.275Z,1.00
2023-03-11T21:24:55.234Z,0.97
2023-03-11T21:27:26.414Z,1.00
2023-03-11T21:29:54.409Z,1.00
2023-03-11T21:32:22.401Z,0.97
2023-03-11T21:34:50.418Z,1.03
2023-03-11T21:37:18.316Z,1.10
2023-03-11T21:39:47.448Z,0.80
2023-03-11T21:42:15.643Z,1.00
2023-03-11T21:44:43.409Z,1.10
2023-03-11T21:47:11.212Z,1.10
2023-03-11T21:49:39.460Z,1.07
2023-03-11T21:52:07.300Z,1.23
2023-03-11T21:54:35.085Z,1.00
2023-03-11T21:57:04.244Z,1.00
2023-03-11T21:59:32.194Z,1.20
2023-03-11T22:02:02.979Z,1.10
2023-03-11T22:04:31.447Z,1.40
2023-03-11T22:06:59.440Z,1.10
2023-03-11T22:09:27.363Z,0.90
2023-03-11T22:11:56.112Z,1.10
2023-03-11T22:14:25.407Z,1.10
2023-03-11T22:16:53.258Z,1.30
2023-03-11T22:19:21.093Z,1.20
2023-03-11T22:21:49.282Z,1.00
2023-03-11T22:24:17.088Z,1.00
2023-03-11T22:26:44.808Z,0.97
2023-03-11T22:29:13.776Z,1.37
2023-03-11T22:31:42.966Z,1.10
2023-03-11T22:34:10.690Z,1.10
2023-03-11T22:36:38.396Z,1.00
2023-03-11T22:39:06.110Z,1.20
2023-03-11T22:41:33.802Z,1.20
2023-03-11T22:44:01.544Z,0.90
2023-03-11T22:46:29.800Z,1.07
2023-03-11T22:48:58.933Z,1.37
2023-03-11T22:51:26.655Z,1.07
2023-03-11T22:53:54.368Z,1.00
2023-03-11T22:56:22.079Z,1.00
2023-03-11T22:58:49.781Z,1.00
2023-03-11T23:01:17.501Z,1.20
2023-03-11T23:03:45.225Z,0.93
2023-03-11T23:06:15.452Z,0.90
2023-03-11T23:08:43.198Z,1.00
2023-03-11T23:11:12.425Z,0.90
2023-03-11T23:13:40.416Z,0.97
2023-03-11T23:16:09.310Z,0.90
2023-03-11T23:18:37.100Z,1.03
2023-03-11T23:21:05.288Z,1.30
2023-03-11T23:23:34.326Z,0.90
2023-03-11T23:26:02.005Z,1.00
2023-03-11T23:28:29.676Z,1.20
2023-03-11T23:30:57.398Z,0.90
2023-03-11T23:33:25.085Z,0.90
2023-03-11T23:35:52.808Z,1.10
2023-03-11T23:38:20.590Z,1.00
2023-03-11T23:40:49.664Z,0.90
2023-03-11T23:43:17.374Z,1.10
2023-03-11T23:45:45.033Z,1.00
2023-03-11T23:48:12.719Z,1.00
2023-03-11T23:50:40.408Z,0.90
2023-03-11T23:53:08.080Z,1.03
2023-03-11T23:55:37.754Z,1.10
2023-03-11T23:58:06.784Z,0.90
